sensor_id;sensor_type;location;lat;lon;timestamp;P1;durP1;ratioP1;P2;durP2;ratioP2
36597;SDS011;22607;49.550;11.940;2023-07-31T00:01:40;5.78;;;1.50;;
36597;SDS011;22607;49.550;11.940;2023-07-31T00:04:07;5.85;;;1.60;;
36597;SDS011;22607;49.550;11.940;2023-07-31T00:06:33;4.80;;;1.50;;
36597;SDS011;22607;49.550;11.940;2023-07-31T00:09:00;5.90;;;1.60;;
36597;SDS011;22607;49.550;11.940;2023-07-31T00:11:27;6.45;;;1.40;;
36597;SDS011;22607;49.550;11.940;2023-07-31T00:16:25;6.30;;;1.60;;
36597;SDS011;22607;49.550;11.940;2023-07-31T00:18:52;5.63;;;1.23;;
36597;SDS011;22607;49.550;11.940;2023-07-31T00:21:18;5.20;;;1.33;;
36597;SDS011;22607;49.550;11.940;2023-07-31T00:23:46;6.85;;;1.85;;
36597;SDS011;22607;49.550;11.940;2023-07-31T00:26:12;5.85;;;1.52;;
36597;SDS011;22607;49.550;11.940;2023-07-31T00:28:39;6.05;;;1.50;;
36597;SDS011;22607;49.550;11.940;2023-07-31T00:31:05;6.22;;;1.52;;
36597;SDS011;22607;49.550;11.940;2023-07-31T00:33:34;4.75;;;1.42;;
36597;SDS011;22607;49.550;11.940;2023-07-31T00:36:01;4.95;;;1.48;;
36597;SDS011;22607;49.550;11.940;2023-07-31T00:38:27;5.15;;;1.52;;
36597;SDS011;22607;49.550;11.940;2023-07-31T00:40:54;5.68;;;1.55;;
36597;SDS011;22607;49.550;11.940;2023-07-31T00:43:24;4.93;;;1.60;;
36597;SDS011;22607;49.550;11.940;2023-07-31T00:45:51;7.05;;;1.65;;
36597;SDS011;22607;49.550;11.940;2023-07-31T00:48:18;5.63;;;1.52;;
36597;SDS011;22607;49.550;11.940;2023-07-31T00:50:45;5.57;;;1.60;;
36597;SDS011;22607;49.550;11.940;2023-07-31T00:53:11;6.88;;;1.40;;
36597;SDS011;22607;49.550;11.940;2023-07-31T00:55:39;5.35;;;1.63;;
36597;SDS011;22607;49.550;11.940;2023-07-31T00:58:06;5.60;;;1.50;;
36597;SDS011;22607;49.550;11.940;2023-07-31T01:00:32;6.90;;;2.10;;
36597;SDS011;22607;49.550;11.940;2023-07-31T01:02:59;6.00;;;1.42;;
36597;SDS011;22607;49.550;11.940;2023-07-31T01:05:33;5.25;;;1.50;;
36597;SDS011;22607;49.550;11.940;2023-07-31T01:08:12;6.32;;;1.42;;
36597;SDS011;22607;49.550;11.940;2023-07-31T01:10:49;5.47;;;1.38;;
36597;SDS011;22607;49.550;11.940;2023-07-31T01:13:21;7.03;;;1.55;;
36597;SDS011;22607;49.550;11.940;2023-07-31T01:15:47;6.22;;;1.77;;
36597;SDS011;22607;49.550;11.940;2023-07-31T01:18:14;8.05;;;1.67;;
36597;SDS011;22607;49.550;11.940;2023-07-31T01:20:41;5.50;;;1.40;;
36597;SDS011;22607;49.550;11.940;2023-07-31T01:25:57;9.50;;;1.85;;
36597;SDS011;22607;49.550;11.940;2023-07-31T01:28:33;5.82;;;1.80;;
36597;SDS011;22607;49.550;11.940;2023-07-31T01:31:01;7.78;;;1.90;;
36597;SDS011;22607;49.550;11.940;2023-07-31T01:33:30;5.28;;;1.70;;
36597;SDS011;22607;49.550;11.940;2023-07-31T01:35:57;7.68;;;1.80;;
36597;SDS011;22607;49.550;11.940;2023-07-31T01:38:24;5.75;;;1.50;;
36597;SDS011;22607;49.550;11.940;2023-07-31T01:40:51;4.50;;;1.48;;
36597;SDS011;22607;49.550;11.940;2023-07-31T01:43:20;5.25;;;1.60;;
36597;SDS011;22607;49.550;11.940;2023-07-31T01:45:46;7.07;;;1.58;;
36597;SDS011;22607;49.550;11.940;2023-07-31T01:48:13;6.30;;;1.65;;
36597;SDS011;22607;49.550;11.940;2023-07-31T01:50:39;6.82;;;1.80;;
36597;SDS011;22607;49.550;11.940;2023-07-31T01:53:06;7.63;;;2.00;;
36597;SDS011;22607;49.550;11.940;2023-07-31T01:55:33;6.72;;;1.88;;
36597;SDS011;22607;49.550;11.940;2023-07-31T01:57:59;6.50;;;1.60;;
36597;SDS011;22607;49.550;11.940;2023-07-31T02:00:27;7.13;;;1.58;;
36597;SDS011;22607;49.550;11.940;2023-07-31T02:02:55;4.90;;;1.50;;
36597;SDS011;22607;49.550;11.940;2023-07-31T02:05:22;4.78;;;1.40;;
36597;SDS011;22607;49.550;11.940;2023-07-31T02:07:49;6.55;;;1.65;;
36597;SDS011;22607;49.550;11.940;2023-07-31T02:10:16;7.43;;;1.73;;
36597;SDS011;22607;49.550;11.940;2023-07-31T02:12:42;7.40;;;1.73;;
36597;SDS011;22607;49.550;11.940;2023-07-31T02:15:09;6.38;;;1.55;;
36597;SDS011;22607;49.550;11.940;2023-07-31T02:17:36;5.43;;;1.52;;
36597;SDS011;22607;49.550;11.940;2023-07-31T02:20:02;6.57;;;1.65;;
36597;SDS011;22607;49.550;11.940;2023-07-31T02:22:30;6.53;;;1.40;;
36597;SDS011;22607;49.550;11.940;2023-07-31T02:24:57;4.85;;;1.40;;
36597;SDS011;22607;49.550;11.940;2023-07-31T02:27:23;5.03;;;1.92;;
36597;SDS011;22607;49.550;11.940;2023-07-31T02:29:55;6.50;;;1.50;;
36597;SDS011;22607;49.550;11.940;2023-07-31T02:32:22;6.57;;;1.58;;
36597;SDS011;22607;49.550;11.940;2023-07-31T02:34:48;7.22;;;1.85;;
36597;SDS011;22607;49.550;11.940;2023-07-31T02:37:15;6.82;;;1.50;;
36597;SDS011;22607;49.550;11.940;2023-07-31T02:39:41;5.78;;;1.50;;
36597;SDS011;22607;49.550;11.940;2023-07-31T02:42:10;4.80;;;1.30;;
36597;SDS011;22607;49.550;11.940;2023-07-31T02:44:36;4.70;;;1.40;;
36597;SDS011;22607;49.550;11.940;2023-07-31T02:47:03;5.55;;;1.63;;
36597;SDS011;22607;49.550;11.940;2023-07-31T02:49:30;5.10;;;1.50;;
36597;SDS011;22607;49.550;11.940;2023-07-31T02:51:57;5.80;;;1.80;;
36597;SDS011;22607;49.550;11.940;2023-07-31T02:54:23;6.43;;;1.50;;
36597;SDS011;22607;49.550;11.940;2023-07-31T02:56:50;6.07;;;1.60;;
36597;SDS011;22607;49.550;11.940;2023-07-31T02:59:17;5.78;;;1.40;;
36597;SDS011;22607;49.550;11.940;2023-07-31T03:01:45;6.43;;;1.73;;
36597;SDS011;22607;49.550;11.940;2023-07-31T03:04:11;5.22;;;1.55;;
36597;SDS011;22607;49.550;11.940;2023-07-31T03:06:38;6.82;;;1.80;;
36597;SDS011;22607;49.550;11.940;2023-07-31T03:09:05;7.00;;;1.65;;
36597;SDS011;22607;49.550;11.940;2023-07-31T03:11:32;5.30;;;1.63;;
36597;SDS011;22607;49.550;11.940;2023-07-31T03:13:58;6.32;;;2.00;;
36597;SDS011;22607;49.550;11.940;2023-07-31T03:16:25;7.40;;;2.00;;
36597;SDS011;22607;49.550;11.940;2023-07-31T03:18:52;7.28;;;1.90;;
36597;SDS011;22607;49.550;11.940;2023-07-31T03:21:18;6.95;;;1.80;;
36597;SDS011;22607;49.550;11.940;2023-07-31T03:23:45;5.93;;;1.80;;
36597;SDS011;22607;49.550;11.940;2023-07-31T03:26:11;6.63;;;1.83;;
36597;SDS011;22607;49.550;11.940;2023-07-31T03:28:39;6.60;;;1.60;;
36597;SDS011;22607;49.550;11.940;2023-07-31T03:31:06;5.80;;;1.73;;
36597;SDS011;22607;49.550;11.940;2023-07-31T03:33:34;6.97;;;1.52;;
36597;SDS011;22607;49.550;11.940;2023-07-31T03:36:01;7.03;;;1.50;;
36597;SDS011;22607;49.550;11.940;2023-07-31T03:38:28;5.90;;;1.60;;
36597;SDS011;22607;49.550;11.940;2023-07-31T03:40:54;5.80;;;1.75;;
36597;SDS011;22607;49.550;11.940;2023-07-31T03:43:21;6.82;;;1.95;;
36597;SDS011;22607;49.550;11.940;2023-07-31T03:45:48;7.05;;;1.70;;
36597;SDS011;22607;49.550;11.940;2023-07-31T03:48:14;5.30;;;1.60;;
36597;SDS011;22607;49.550;11.940;2023-07-31T03:50:42;5.13;;;1.50;;
36597;SDS011;22607;49.550;11.940;2023-07-31T03:53:09;5.30;;;1.38;;
36597;SDS011;22607;49.550;11.940;2023-07-31T03:55:36;5.80;;;1.70;;
36597;SDS011;22607;49.550;11.940;2023-07-31T03:58:02;5.25;;;1.40;;
36597;SDS011;22607;49.550;11.940;2023-07-31T04:00:29;6.45;;;1.77;;
36597;SDS011;22607;49.550;11.940;2023-07-31T04:02:55;6.03;;;1.65;;
36597;SDS011;22607;49.550;11.940;2023-07-31T04:05:22;5.15;;;1.58;;
36597;SDS011;22607;49.550;11.940;2023-07-31T04:07:48;7.47;;;1.70;;
36597;SDS011;22607;49.550;11.940;2023-07-31T04:10:15;6.22;;;1.33;;
36597;SDS011;22607;49.550;11.940;2023-07-31T04:12:42;5.40;;;1.50;;
36597;SDS011;22607;49.550;11.940;2023-07-31T04:15:08;6.13;;;1.80;;
36597;SDS011;22607;49.550;11.940;2023-07-31T04:17:35;6.22;;;1.70;;
36597;SDS011;22607;49.550;11.940;2023-07-31T04:20:02;6.38;;;1.35;;
36597;SDS011;22607;49.550;11.940;2023-07-31T04:22:30;6.03;;;1.27;;
36597;SDS011;22607;49.550;11.940;2023-07-31T04:24:56;6.47;;;1.60;;
36597;SDS011;22607;49.550;11.940;2023-07-31T04:27:23;6.90;;;1.65;;
36597;SDS011;22607;49.550;11.940;2023-07-31T04:29:50;6.13;;;1.33;;
36597;SDS011;22607;49.550;11.940;2023-07-31T04:32:17;6.30;;;1.60;;
36597;SDS011;22607;49.550;11.940;2023-07-31T04:34:44;6.75;;;1.50;;
36597;SDS011;22607;49.550;11.940;2023-07-31T04:37:10;7.25;;;1.48;;
36597;SDS011;22607;49.550;11.940;2023-07-31T04:39:37;6.63;;;1.50;;
36597;SDS011;22607;49.550;11.940;2023-07-31T04:42:03;6.47;;;1.63;;
36597;SDS011;22607;49.550;11.940;2023-07-31T04:44:30;6.38;;;1.75;;
36597;SDS011;22607;49.550;11.940;2023-07-31T04:46:56;7.20;;;1.50;;
36597;SDS011;22607;49.550;11.940;2023-07-31T04:49:23;4.88;;;1.27;;
36597;SDS011;22607;49.550;11.940;2023-07-31T04:51:50;5.88;;;1.60;;
36597;SDS011;22607;49.550;11.940;2023-07-31T04:54:16;5.30;;;1.60;;
36597;SDS011;22607;49.550;11.940;2023-07-31T04:56:43;5.00;;;1.17;;
36597;SDS011;22607;49.550;11.940;2023-07-31T04:59:09;6.53;;;1.70;;
36597;SDS011;22607;49.550;11.940;2023-07-31T05:01:36;4.85;;;1.40;;
36597;SDS011;22607;49.550;11.940;2023-07-31T05:04:03;5.97;;;1.52;;
36597;SDS011;22607;49.550;11.940;2023-07-31T05:06:29;6.40;;;1.50;;
36597;SDS011;22607;49.550;11.940;2023-07-31T05:08:56;5.32;;;1.40;;
36597;SDS011;22607;49.550;11.940;2023-07-31T05:11:23;6.18;;;1.60;;
36597;SDS011;22607;49.550;11.940;2023-07-31T05:13:49;5.18;;;1.50;;
36597;SDS011;22607;49.550;11.940;2023-07-31T05:16:18;5.07;;;1.23;;
36597;SDS011;22607;49.550;11.940;2023-07-31T05:18:47;8.32;;;1.80;;
36597;SDS011;22607;49.550;11.940;2023-07-31T05:21:13;5.20;;;1.40;;
36597;SDS011;22607;49.550;11.940;2023-07-31T05:23:40;5.30;;;1.40;;
36597;SDS011;22607;49.550;11.940;2023-07-31T05:26:07;5.90;;;1.30;;
36597;SDS011;22607;49.550;11.940;2023-07-31T05:28:34;6.32;;;1.80;;
36597;SDS011;22607;49.550;11.940;2023-07-31T05:31:02;6.03;;;1.40;;
36597;SDS011;22607;49.550;11.940;2023-07-31T05:33:30;6.30;;;1.50;;
36597;SDS011;22607;49.550;11.940;2023-07-31T05:35:58;7.07;;;1.60;;
36597;SDS011;22607;49.550;11.940;2023-07-31T05:38:24;5.68;;;1.63;;
36597;SDS011;22607;49.550;11.940;2023-07-31T05:40:51;5.75;;;1.30;;
36597;SDS011;22607;49.550;11.940;2023-07-31T05:43:17;6.88;;;1.30;;
36597;SDS011;22607;49.550;11.940;2023-07-31T05:45:44;6.72;;;1.67;;
36597;SDS011;22607;49.550;11.940;2023-07-31T05:48:11;3.78;;;1.30;;
36597;SDS011;22607;49.550;11.940;2023-07-31T05:50:37;5.25;;;1.40;;
36597;SDS011;22607;49.550;11.940;2023-07-31T05:53:06;5.47;;;1.45;;
36597;SDS011;22607;49.550;11.940;2023-07-31T05:55:34;6.63;;;1.30;;
36597;SDS011;22607;49.550;11.940;2023-07-31T05:58:00;5.40;;;1.30;;
36597;SDS011;22607;49.550;11.940;2023-07-31T06:00:27;5.82;;;1.38;;
36597;SDS011;22607;49.550;11.940;2023-07-31T06:02:54;5.75;;;1.60;;
36597;SDS011;22607;49.550;11.940;2023-07-31T06:05:21;6.00;;;1.48;;
36597;SDS011;22607;49.550;11.940;2023-07-31T06:07:48;5.25;;;1.33;;
36597;SDS011;22607;49.550;11.940;2023-07-31T06:10:17;4.47;;;1.42;;
36597;SDS011;22607;49.550;11.940;2023-07-31T06:12:59;6.30;;;1.58;;
36597;SDS011;22607;49.550;11.940;2023-07-31T06:15:25;6.43;;;1.50;;
36597;SDS011;22607;49.550;11.940;2023-07-31T06:17:52;5.25;;;1.40;;
36597;SDS011;22607;49.550;11.940;2023-07-31T06:20:28;5.53;;;1.30;;
36597;SDS011;22607;49.550;11.940;2023-07-31T06:23:02;5.82;;;1.50;;
36597;SDS011;22607;49.550;11.940;2023-07-31T06:25:45;7.25;;;1.75;;
36597;SDS011;22607;49.550;11.940;2023-07-31T06:28:11;5.75;;;1.40;;
36597;SDS011;22607;49.550;11.940;2023-07-31T06:30:38;5.40;;;1.60;;
36597;SDS011;22607;49.550;11.940;2023-07-31T06:33:05;8.90;;;1.63;;
36597;SDS011;22607;49.550;11.940;2023-07-31T06:35:31;5.78;;;1.50;;
36597;SDS011;22607;49.550;11.940;2023-07-31T06:37:58;6.80;;;1.85;;
36597;SDS011;22607;49.550;11.940;2023-07-31T06:40:24;6.28;;;1.60;;
36597;SDS011;22607;49.550;11.940;2023-07-31T06:42:51;6.18;;;1.55;;
36597;SDS011;22607;49.550;11.940;2023-07-31T06:45:17;6.88;;;1.83;;
36597;SDS011;22607;49.550;11.940;2023-07-31T06:47:48;7.00;;;1.80;;
36597;SDS011;22607;49.550;11.940;2023-07-31T06:50:14;7.53;;;1.63;;
36597;SDS011;22607;49.550;11.940;2023-07-31T06:52:41;6.55;;;1.50;;
36597;SDS011;22607;49.550;11.940;2023-07-31T06:55:18;7.35;;;1.50;;
36597;SDS011;22607;49.550;11.940;2023-07-31T06:57:47;6.72;;;1.50;;
36597;SDS011;22607;49.550;11.940;2023-07-31T07:00:14;8.57;;;1.70;;
36597;SDS011;22607;49.550;11.940;2023-07-31T07:02:41;6.70;;;1.50;;
36597;SDS011;22607;49.550;11.940;2023-07-31T07:05:08;7.07;;;1.70;;
36597;SDS011;22607;49.550;11.940;2023-07-31T07:07:35;5.00;;;1.40;;
36597;SDS011;22607;49.550;11.940;2023-07-31T07:10:02;6.20;;;1.50;;
36597;SDS011;22607;49.550;11.940;2023-07-31T07:12:30;6.93;;;1.70;;
36597;SDS011;22607;49.550;11.940;2023-07-31T07:14:57;6.50;;;1.60;;
36597;SDS011;22607;49.550;11.940;2023-07-31T07:17:24;6.95;;;1.50;;
36597;SDS011;22607;49.550;11.940;2023-07-31T07:19:51;6.78;;;1.50;;
36597;SDS011;22607;49.550;11.940;2023-07-31T07:22:20;7.82;;;1.75;;
36597;SDS011;22607;49.550;11.940;2023-07-31T07:24:48;5.38;;;1.67;;
36597;SDS011;22607;49.550;11.940;2023-07-31T07:27:14;6.88;;;1.92;;
36597;SDS011;22607;49.550;11.940;2023-07-31T07:29:41;6.60;;;1.60;;
36597;SDS011;22607;49.550;11.940;2023-07-31T07:32:08;5.45;;;1.52;;
36597;SDS011;22607;49.550;11.940;2023-07-31T07:34:35;7.88;;;1.85;;
36597;SDS011;22607;49.550;11.940;2023-07-31T07:37:01;6.82;;;1.70;;
36597;SDS011;22607;49.550;11.940;2023-07-31T07:39:28;6.97;;;1.88;;
36597;SDS011;22607;49.550;11.940;2023-07-31T07:41:56;6.65;;;1.63;;
36597;SDS011;22607;49.550;11.940;2023-07-31T07:44:23;7.55;;;1.70;;
36597;SDS011;22607;49.550;11.940;2023-07-31T07:46:50;7.30;;;2.10;;
36597;SDS011;22607;49.550;11.940;2023-07-31T07:49:16;8.60;;;1.70;;
36597;SDS011;22607;49.550;11.940;2023-07-31T07:51:43;8.55;;;1.80;;
36597;SDS011;22607;49.550;11.940;2023-07-31T07:54:09;8.52;;;1.70;;
36597;SDS011;22607;49.550;11.940;2023-07-31T07:56:36;6.72;;;2.25;;
36597;SDS011;22607;49.550;11.940;2023-07-31T07:59:03;7.22;;;1.80;;
36597;SDS011;22607;49.550;11.940;2023-07-31T08:01:30;7.82;;;2.45;;
36597;SDS011;22607;49.550;11.940;2023-07-31T08:03:57;7.35;;;1.80;;
36597;SDS011;22607;49.550;11.940;2023-07-31T08:06:25;7.80;;;1.80;;
36597;SDS011;22607;49.550;11.940;2023-07-31T08:08:52;6.35;;;1.70;;
36597;SDS011;22607;49.550;11.940;2023-07-31T08:11:18;7.22;;;1.73;;
36597;SDS011;22607;49.550;11.940;2023-07-31T08:13:45;7.47;;;1.83;;
36597;SDS011;22607;49.550;11.940;2023-07-31T08:16:12;8.95;;;1.80;;
36597;SDS011;22607;49.550;11.940;2023-07-31T08:18:41;8.63;;;1.90;;
36597;SDS011;22607;49.550;11.940;2023-07-31T08:21:09;8.18;;;1.85;;
36597;SDS011;22607;49.550;11.940;2023-07-31T08:23:36;6.68;;;1.75;;
36597;SDS011;22607;49.550;11.940;2023-07-31T08:26:02;6.57;;;2.03;;
36597;SDS011;22607;49.550;11.940;2023-07-31T08:28:29;6.78;;;1.50;;
36597;SDS011;22607;49.550;11.940;2023-07-31T08:30:55;7.30;;;2.00;;
36597;SDS011;22607;49.550;11.940;2023-07-31T08:33:22;7.18;;;1.95;;
36597;SDS011;22607;49.550;11.940;2023-07-31T08:35:48;7.32;;;1.70;;
36597;SDS011;22607;49.550;11.940;2023-07-31T08:38:15;6.80;;;1.70;;
36597;SDS011;22607;49.550;11.940;2023-07-31T08:40:41;7.57;;;1.90;;
36597;SDS011;22607;49.550;11.940;2023-07-31T08:43:09;8.30;;;2.05;;
36597;SDS011;22607;49.550;11.940;2023-07-31T08:45:36;7.22;;;1.70;;
36597;SDS011;22607;49.550;11.940;2023-07-31T08:48:03;8.20;;;1.70;;
36597;SDS011;22607;49.550;11.940;2023-07-31T08:50:31;8.07;;;2.30;;
36597;SDS011;22607;49.550;11.940;2023-07-31T08:52:58;7.70;;;1.70;;
36597;SDS011;22607;49.550;11.940;2023-07-31T08:55:24;7.75;;;1.85;;
36597;SDS011;22607;49.550;11.940;2023-07-31T08:57:51;7.07;;;1.90;;
36597;SDS011;22607;49.550;11.940;2023-07-31T09:00:22;5.85;;;1.80;;
36597;SDS011;22607;49.550;11.940;2023-07-31T09:05:28;8.65;;;1.83;;
36597;SDS011;22607;49.550;11.940;2023-07-31T09:07:56;7.43;;;1.95;;
36597;SDS011;22607;49.550;11.940;2023-07-31T09:10:23;5.85;;;1.75;;
36597;SDS011;22607;49.550;11.940;2023-07-31T09:12:50;8.02;;;1.92;;
36597;SDS011;22607;49.550;11.940;2023-07-31T09:15:18;8.20;;;1.73;;
36597;SDS011;22607;49.550;11.940;2023-07-31T09:18:02;5.80;;;1.52;;
36597;SDS011;22607;49.550;11.940;2023-07-31T09:20:31;6.05;;;1.70;;
36597;SDS011;22607;49.550;11.940;2023-07-31T09:23:06;6.50;;;1.70;;
36597;SDS011;22607;49.550;11.940;2023-07-31T09:25:33;7.60;;;2.10;;
36597;SDS011;22607;49.550;11.940;2023-07-31T09:28:01;7.13;;;1.80;;
36597;SDS011;22607;49.550;11.940;2023-07-31T09:30:29;8.38;;;1.80;;
36597;SDS011;22607;49.550;11.940;2023-07-31T09:33:06;9.25;;;2.13;;
36597;SDS011;22607;49.550;11.940;2023-07-31T09:35:34;7.22;;;1.98;;
36597;SDS011;22607;49.550;11.940;2023-07-31T09:38:12;7.60;;;1.85;;
36597;SDS011;22607;49.550;11.940;2023-07-31T09:40:41;8.43;;;2.30;;
36597;SDS011;22607;49.550;11.940;2023-07-31T09:43:11;6.57;;;1.75;;
36597;SDS011;22607;49.550;11.940;2023-07-31T09:45:40;5.32;;;1.48;;
36597;SDS011;22607;49.550;11.940;2023-07-31T09:48:09;6.40;;;1.65;;
36597;SDS011;22607;49.550;11.940;2023-07-31T09:50:44;7.72;;;2.03;;
36597;SDS011;22607;49.550;11.940;2023-07-31T09:53:12;8.88;;;2.28;;
36597;SDS011;22607;49.550;11.940;2023-07-31T09:55:39;7.35;;;2.03;;
36597;SDS011;22607;49.550;11.940;2023-07-31T09:58:08;6.22;;;1.60;;
36597;SDS011;22607;49.550;11.940;2023-07-31T10:00:36;7.30;;;2.08;;
36597;SDS011;22607;49.550;11.940;2023-07-31T10:03:05;7.20;;;1.52;;
36597;SDS011;22607;49.550;11.940;2023-07-31T10:05:34;6.50;;;1.70;;
36597;SDS011;22607;49.550;11.940;2023-07-31T10:08:07;6.40;;;1.85;;
36597;SDS011;22607;49.550;11.940;2023-07-31T10:10:37;5.95;;;1.60;;
36597;SDS011;22607;49.550;11.940;2023-07-31T10:13:07;6.72;;;1.83;;
36597;SDS011;22607;49.550;11.940;2023-07-31T10:15:34;6.15;;;1.60;;
36597;SDS011;22607;49.550;11.940;2023-07-31T10:18:02;5.22;;;1.45;;
36597;SDS011;22607;49.550;11.940;2023-07-31T10:20:33;7.03;;;1.60;;
36597;SDS011;22607;49.550;11.940;2023-07-31T10:23:01;6.68;;;1.50;;
36597;SDS011;22607;49.550;11.940;2023-07-31T10:25:28;8.27;;;1.83;;
36597;SDS011;22607;49.550;11.940;2023-07-31T10:27:57;9.18;;;2.15;;
36597;SDS011;22607;49.550;11.940;2023-07-31T10:30:26;5.10;;;1.30;;
36597;SDS011;22607;49.550;11.940;2023-07-31T10:32:55;7.60;;;1.88;;
36597;SDS011;22607;49.550;11.940;2023-07-31T10:35:23;9.18;;;1.80;;
36597;SDS011;22607;49.550;11.940;2023-07-31T10:37:50;6.70;;;1.80;;
36597;SDS011;22607;49.550;11.940;2023-07-31T10:40:19;6.00;;;1.50;;
36597;SDS011;22607;49.550;11.940;2023-07-31T10:42:56;6.65;;;1.63;;
36597;SDS011;22607;49.550;11.940;2023-07-31T10:47:59;5.28;;;1.35;;
36597;SDS011;22607;49.550;11.940;2023-07-31T10:50:27;7.90;;;2.25;;
36597;SDS011;22607;49.550;11.940;2023-07-31T10:52:55;7.10;;;2.10;;
36597;SDS011;22607;49.550;11.940;2023-07-31T10:55:28;6.47;;;1.60;;
36597;SDS011;22607;49.550;11.940;2023-07-31T10:58:06;6.03;;;1.50;;
36597;SDS011;22607;49.550;11.940;2023-07-31T11:00:37;6.85;;;1.42;;
36597;SDS011;22607;49.550;11.940;2023-07-31T11:03:06;7.10;;;1.83;;
36597;SDS011;22607;49.550;11.940;2023-07-31T11:08:23;6.63;;;1.67;;
36597;SDS011;22607;49.550;11.940;2023-07-31T11:13:30;6.53;;;1.40;;
36597;SDS011;22607;49.550;11.940;2023-07-31T11:15:57;5.97;;;1.65;;
36597;SDS011;22607;49.550;11.940;2023-07-31T11:18:28;6.43;;;1.60;;
36597;SDS011;22607;49.550;11.940;2023-07-31T11:20:54;5.28;;;1.40;;
36597;SDS011;22607;49.550;11.940;2023-07-31T11:23:21;6.40;;;1.70;;
36597;SDS011;22607;49.550;11.940;2023-07-31T11:25:48;8.85;;;1.60;;
36597;SDS011;22607;49.550;11.940;2023-07-31T11:28:17;7.30;;;1.75;;
36597;SDS011;22607;49.550;11.940;2023-07-31T11:30:45;5.53;;;1.60;;
36597;SDS011;22607;49.550;11.940;2023-07-31T11:33:13;6.00;;;1.42;;
36597;SDS011;22607;49.550;11.940;2023-07-31T11:35:47;5.93;;;1.75;;
36597;SDS011;22607;49.550;11.940;2023-07-31T11:38:34;5.97;;;1.50;;
36597;SDS011;22607;49.550;11.940;2023-07-31T11:41:02;5.97;;;1.63;;
36597;SDS011;22607;49.550;11.940;2023-07-31T11:43:33;6.70;;;1.50;;
36597;SDS011;22607;49.550;11.940;2023-07-31T11:46:02;6.13;;;1.63;;
36597;SDS011;22607;49.550;11.940;2023-07-31T11:48:33;5.65;;;1.50;;
36597;SDS011;22607;49.550;11.940;2023-07-31T11:51:09;6.13;;;1.58;;
36597;SDS011;22607;49.550;11.940;2023-07-31T11:56:24;4.47;;;1.50;;
36597;SDS011;22607;49.550;11.940;2023-07-31T11:58:59;5.38;;;1.48;;
36597;SDS011;22607;49.550;11.940;2023-07-31T12:01:28;6.05;;;1.40;;
36597;SDS011;22607;49.550;11.940;2023-07-31T12:03:55;4.75;;;1.30;;
36597;SDS011;22607;49.550;11.940;2023-07-31T12:06:32;6.03;;;1.52;;
36597;SDS011;22607;49.550;11.940;2023-07-31T12:09:03;5.88;;;1.40;;
36597;SDS011;22607;49.550;11.940;2023-07-31T12:11:31;5.15;;;1.23;;
36597;SDS011;22607;49.550;11.940;2023-07-31T12:14:08;6.72;;;1.50;;
36597;SDS011;22607;49.550;11.940;2023-07-31T12:16:52;5.20;;;1.52;;
36597;SDS011;22607;49.550;11.940;2023-07-31T12:19:20;7.60;;;1.77;;
36597;SDS011;22607;49.550;11.940;2023-07-31T12:21:49;5.65;;;1.50;;
36597;SDS011;22607;49.550;11.940;2023-07-31T12:24:17;5.85;;;1.58;;
36597;SDS011;22607;49.550;11.940;2023-07-31T12:26:45;6.47;;;1.42;;
36597;SDS011;22607;49.550;11.940;2023-07-31T12:29:13;5.60;;;1.50;;
36597;SDS011;22607;49.550;11.940;2023-07-31T12:31:40;7.15;;;1.95;;
36597;SDS011;22607;49.550;11.940;2023-07-31T12:34:17;7.55;;;1.88;;
36597;SDS011;22607;49.550;11.940;2023-07-31T12:36:45;6.68;;;1.70;;
36597;SDS011;22607;49.550;11.940;2023-07-31T12:39:12;7.35;;;1.60;;
36597;SDS011;22607;49.550;11.940;2023-07-31T12:41:39;5.30;;;1.63;;
36597;SDS011;22607;49.550;11.940;2023-07-31T12:44:05;5.50;;;1.45;;
36597;SDS011;22607;49.550;11.940;2023-07-31T12:46:33;5.30;;;1.60;;
36597;SDS011;22607;49.550;11.940;2023-07-31T12:49:00;6.03;;;1.80;;
36597;SDS011;22607;49.550;11.940;2023-07-31T12:51:27;7.13;;;1.92;;
36597;SDS011;22607;49.550;11.940;2023-07-31T12:53:54;6.25;;;1.67;;
36597;SDS011;22607;49.550;11.940;2023-07-31T12:56:20;8.02;;;2.00;;
36597;SDS011;22607;49.550;11.940;2023-07-31T12:58:47;6.43;;;1.70;;
36597;SDS011;22607;49.550;11.940;2023-07-31T13:01:13;6.78;;;2.05;;
36597;SDS011;22607;49.550;11.940;2023-07-31T13:03:40;8.48;;;1.73;;
36597;SDS011;22607;49.550;11.940;2023-07-31T13:06:07;7.05;;;1.67;;
36597;SDS011;22607;49.550;11.940;2023-07-31T13:08:33;7.20;;;1.98;;
36597;SDS011;22607;49.550;11.940;2023-07-31T13:11:00;5.82;;;1.75;;
36597;SDS011;22607;49.550;11.940;2023-07-31T13:13:26;7.63;;;1.85;;
36597;SDS011;22607;49.550;11.940;2023-07-31T13:15:53;8.20;;;2.17;;
36597;SDS011;22607;49.550;11.940;2023-07-31T13:18:21;7.63;;;1.90;;
36597;SDS011;22607;49.550;11.940;2023-07-31T13:20:47;6.05;;;1.88;;
36597;SDS011;22607;49.550;11.940;2023-07-31T13:23:14;7.38;;;1.98;;
36597;SDS011;22607;49.550;11.940;2023-07-31T13:25:41;9.88;;;2.03;;
36597;SDS011;22607;49.550;11.940;2023-07-31T13:28:07;7.95;;;2.30;;
36597;SDS011;22607;49.550;11.940;2023-07-31T13:30:34;6.88;;;2.10;;
36597;SDS011;22607;49.550;11.940;2023-07-31T13:33:00;6.45;;;2.10;;
36597;SDS011;22607;49.550;11.940;2023-07-31T13:35:27;6.55;;;1.88;;
36597;SDS011;22607;49.550;11.940;2023-07-31T13:37:54;7.63;;;2.00;;
36597;SDS011;22607;49.550;11.940;2023-07-31T13:40:21;8.93;;;2.80;;
36597;SDS011;22607;49.550;11.940;2023-07-31T13:42:48;6.53;;;2.00;;
36597;SDS011;22607;49.550;11.940;2023-07-31T13:45:14;6.47;;;1.88;;
36597;SDS011;22607;49.550;11.940;2023-07-31T13:47:42;7.43;;;2.33;;
36597;SDS011;22607;49.550;11.940;2023-07-31T13:50:09;8.23;;;2.50;;
36597;SDS011;22607;49.550;11.940;2023-07-31T13:52:35;6.93;;;2.10;;
36597;SDS011;22607;49.550;11.940;2023-07-31T13:55:02;7.57;;;1.90;;
36597;SDS011;22607;49.550;11.940;2023-07-31T13:57:29;8.55;;;2.35;;
36597;SDS011;22607;49.550;11.940;2023-07-31T13:59:56;6.97;;;2.00;;
36597;SDS011;22607;49.550;11.940;2023-07-31T14:02:22;7.32;;;2.10;;
36597;SDS011;22607;49.550;11.940;2023-07-31T14:04:49;8.57;;;2.42;;
36597;SDS011;22607;49.550;11.940;2023-07-31T14:07:15;7.07;;;2.17;;
36597;SDS011;22607;49.550;11.940;2023-07-31T14:09:43;8.68;;;2.40;;
36597;SDS011;22607;49.550;11.940;2023-07-31T14:12:11;7.97;;;2.17;;
36597;SDS011;22607;49.550;11.940;2023-07-31T14:14:38;7.55;;;2.45;;
36597;SDS011;22607;49.550;11.940;2023-07-31T14:17:04;9.93;;;2.42;;
36597;SDS011;22607;49.550;11.940;2023-07-31T14:19:32;7.20;;;2.10;;
36597;SDS011;22607;49.550;11.940;2023-07-31T14:22:00;9.70;;;2.60;;
36597;SDS011;22607;49.550;11.940;2023-07-31T14:24:37;7.47;;;2.22;;
36597;SDS011;22607;49.550;11.940;2023-07-31T14:27:05;8.13;;;2.30;;
36597;SDS011;22607;49.550;11.940;2023-07-31T14:29:32;6.85;;;2.05;;
36597;SDS011;22607;49.550;11.940;2023-07-31T14:31:58;10.27;;;2.42;;
36597;SDS011;22607;49.550;11.940;2023-07-31T14:34:26;8.32;;;2.25;;
36597;SDS011;22607;49.550;11.940;2023-07-31T14:36:53;5.90;;;1.88;;
36597;SDS011;22607;49.550;11.940;2023-07-31T14:39:20;7.15;;;2.20;;
36597;SDS011;22607;49.550;11.940;2023-07-31T14:41:48;8.15;;;2.35;;
36597;SDS011;22607;49.550;11.940;2023-07-31T14:44:18;8.60;;;2.38;;
36597;SDS011;22607;49.550;11.940;2023-07-31T14:46:46;8.50;;;2.33;;
36597;SDS011;22607;49.550;11.940;2023-07-31T14:49:13;8.15;;;2.72;;
36597;SDS011;22607;49.550;11.940;2023-07-31T14:51:40;10.02;;;2.95;;
36597;SDS011;22607;49.550;11.940;2023-07-31T14:54:06;8.57;;;2.45;;
36597;SDS011;22607;49.550;11.940;2023-07-31T14:56:33;7.45;;;2.60;;